Time;durP1;ratioP1;P1;durP2;ratioP2;P2;SDS_P1;SDS_P2;PMS_P1;PMS_P2;Temp;Humidity;BMP_temperature;BMP_pressure;BME280_temperature;BME280_humidity;BME280_pressure;Samples;Min_cycle;Max_cycle;Signal;HPM_P1;HPM_P2
2023/05/29 00:04:40;;;;;;;16.30;3.67;;;;;;;9.19;100.00;102447.44;10372592;28;20057;-67
2023/05/29 00:09:40;;;;;;;10.10;2.20;;;;;;;9.16;100.00;102458.00;10377504;28;20034;-68
2023/05/29 00:14:41;;;;;;;10.25;2.15;;;;;;;9.08;100.00;102457.13;10378400;28;20403;-70
2023/05/29 00:19:43;;;;;;;13.27;2.30;;;;;;;9.05;100.00;102470.41;10378531;28;20525;-70
2023/05/29 00:24:43;;;;;;;15.50;2.05;;;;;;;8.98;100.00;102470.38;10377844;28;20521;-70
2023/05/29 00:29:43;;;;;;;12.60;2.17;;;;;;;8.95;100.00;102465.31;10386575;28;20037;-70
2023/05/29 00:34:44;;;;;;;11.85;1.90;;;;;;;8.86;100.00;102459.13;10417563;28;20095;-69
2023/05/29 00:39:45;;;;;;;9.23;2.10;;;;;;;8.84;100.00;102460.41;10412826;28;20048;-69
2023/05/29 00:44:46;;;;;;;13.13;2.58;;;;;;;8.82;100.00;102473.47;10416337;28;20034;-70
2023/05/29 00:49:46;;;;;;;12.10;2.78;;;;;;;8.83;100.00;102475.19;10416576;28;20409;-70
2023/05/29 00:54:47;;;;;;;14.27;2.78;;;;;;;8.77;100.00;102479.59;10399142;28;20029;-70
2023/05/29 00:59:47;;;;;;;12.25;2.35;;;;;;;8.75;100.00;102483.59;10417081;28;20128;-70
2023/05/29 01:04:48;;;;;;;20.48;2.75;;;;;;;8.66;100.00;102478.28;10453693;28;20049;-70
2023/05/29 01:09:48;;;;;;;16.60;2.47;;;;;;;8.53;100.00;102461.69;10441021;28;20044;-69
2023/05/29 01:15:18;;;;;;;12.40;4.18;;;;;;;8.68;100.00;102500.88;10458922;28;20040;-70
2023/05/29 01:20:34;;;;;;;14.95;2.17;;;;;;;8.67;100.00;102501.91;10451030;28;20048;-70
2023/05/29 01:25:54;;;;;;;15.93;2.77;;;;;;;8.66;100.00;102491.13;10417280;28;20068;-69
2023/05/29 01:30:55;;;;;;;14.88;3.40;;;;;;;8.59;100.00;102496.59;10414987;28;20049;-69
2023/05/29 01:35:55;;;;;;;15.25;2.80;;;;;;;8.62;100.00;102512.66;10398239;28;20056;-69
2023/05/29 01:40:56;;;;;;;11.90;2.25;;;;;;;8.63;100.00;102497.88;10414633;28;20042;-69
2023/05/29 01:45:56;;;;;;;12.70;3.35;;;;;;;8.63;100.00;102497.03;10416640;28;20049;-69
2023/05/29 01:50:56;;;;;;;13.25;3.92;;;;;;;8.40;100.00;102476.16;10413325;28;20041;-69
2023/05/29 01:55:57;;;;;;;9.60;1.92;;;;;;;8.47;100.00;102492.69;10381462;28;20076;-68
2023/05/29 02:00:57;;;;;;;21.17;2.63;;;;;;;8.52;100.00;102509.44;10357108;28;20034;-69
2023/05/29 02:05:58;;;;;;;20.38;2.88;;;;;;;8.48;100.00;102513.63;10372911;28;20053;-69
2023/05/29 02:10:59;;;;;;;9.80;2.70;;;;;;;8.40;100.00;102511.00;10372514;28;20042;-68
2023/05/29 02:15:59;;;;;;;21.65;3.95;;;;;;;8.38;100.00;102515.84;10373226;28;20096;-69
2023/05/29 02:21:00;;;;;;;9.75;3.25;;;;;;;8.31;100.00;102514.91;10394734;28;20038;-69
2023/05/29 02:26:00;;;;;;;10.85;2.40;;;;;;;8.20;100.00;102517.16;10439660;28;20056;-69
2023/05/29 02:31:02;;;;;;;13.70;2.25;;;;;;;8.07;100.00;102497.84;10453285;28;20044;-69
2023/05/29 02:36:03;;;;;;;11.50;2.40;;;;;;;8.12;100.00;102500.00;10437416;28;20080;-69
2023/05/29 02:41:03;;;;;;;12.45;2.65;;;;;;;8.00;100.00;102502.41;10453779;28;20037;-69
2023/05/29 02:46:04;;;;;;;14.60;2.53;;;;;;;8.02;100.00;102505.81;10425390;28;20042;-69
2023/05/29 02:51:05;;;;;;;14.75;2.67;;;;;;;7.92;100.00;102511.66;10395889;28;20103;-68
2023/05/29 02:56:07;;;;;;;14.82;4.10;;;;;;;7.84;100.00;102509.88;10414555;28;20064;-68
2023/05/29 03:01:07;;;;;;;17.08;3.63;;;;;;;7.82;100.00;102517.47;10414479;28;20109;-69
2023/05/29 03:06:09;;;;;;;8.68;1.92;;;;;;;7.82;100.00;102511.97;10413620;28;20041;-68
2023/05/29 03:11:10;;;;;;;7.78;1.85;;;;;;;7.80;100.00;102503.09;10413194;28;20037;-68
2023/05/29 03:16:11;;;;;;;21.63;3.28;;;;;;;7.83;100.00;102497.25;10373330;28;20042;-68
2023/05/29 03:21:11;;;;;;;9.48;1.83;;;;;;;7.86;100.00;102496.81;10373187;28;20030;-69
2023/05/29 03:26:12;;;;;;;8.85;1.98;;;;;;;7.85;100.00;102506.13;10371402;28;20045;-68
2023/05/29 03:31:12;;;;;;;14.18;2.75;;;;;;;7.81;100.00;102499.31;10372589;28;20428;-69
2023/05/29 03:36:13;;;;;;;12.52;2.85;;;;;;;7.78;100.00;102499.69;10370907;28;20042;-67
2023/05/29 03:41:13;;;;;;;16.48;1.80;;;;;;;7.84;100.00;102507.16;10396395;28;20060;-69
2023/05/29 03:46:14;;;;;;;11.73;1.85;;;;;;;7.94;100.00;102503.22;10420523;28;20033;-69
2023/05/29 03:51:15;;;;;;;14.48;3.67;;;;;;;8.05;100.00;102516.41;10420856;28;20060;-69
2023/05/29 03:56:15;;;;;;;11.48;2.10;;;;;;;8.09;100.00;102504.84;10421277;28;20064;-69
2023/05/29 04:01:16;;;;;;;16.17;2.50;;;;;;;8.16;100.00;102507.63;10402809;28;20422;-69
2023/05/29 04:06:16;;;;;;;11.05;2.80;;;;;;;8.28;100.00;102514.28;10418653;28;20048;-69
2023/05/29 04:11:17;;;;;;;14.07;2.03;;;;;;;8.38;100.00;102511.19;10418633;28;20041;-69
2023/05/29 04:16:17;;;;;;;13.50;3.05;;;;;;;8.53;100.00;102524.84;10400255;28;20464;-69
2023/05/29 04:21:18;;;;;;;11.18;2.28;;;;;;;8.60;100.00;102525.75;10385132;28;20066;-69
2023/05/29 04:26:20;;;;;;;11.32;2.67;;;;;;;8.71;100.00;102529.81;10390604;28;20044;-69
2023/05/29 04:31:22;;;;;;;14.02;2.10;;;;;;;8.79;100.00;102535.16;10378788;28;20040;-69
2023/05/29 04:36:26;;;;;;;11.57;2.42;;;;;;;8.96;100.00;102524.69;10378373;28;20080;-69
2023/05/29 04:41:30;;;;;;;11.40;2.42;;;;;;;9.05;100.00;102531.72;10374915;28;20042;-69
2023/05/29 04:46:31;;;;;;;14.23;1.88;;;;;;;9.16;100.00;102532.19;10359173;28;20106;-69
2023/05/29 04:51:31;;;;;;;9.75;2.17;;;;;;;9.29;100.00;102540.50;10377764;28;20038;-68
2023/05/29 04:56:32;;;;;;;17.50;2.42;;;;;;;9.41;100.00;102549.00;10376791;28;20065;-69
2023/05/29 05:01:35;;;;;;;9.02;2.47;;;;;;;9.49;100.00;102546.91;10374248;28;20030;-69
2023/05/29 05:06:36;;;;;;;9.80;1.40;;;;;;;9.60;100.00;102547.38;10374881;28;20052;-68
2023/05/29 05:11:36;;;;;;;8.77;2.28;;;;;;;9.65;100.00;102553.09;10376391;28;20034;-68
2023/05/29 05:16:37;;;;;;;13.20;2.00;;;;;;;9.69;100.00;102552.47;10373884;28;20053;-68
2023/05/29 05:21:37;;;;;;;15.98;2.13;;;;;;;9.75;100.00;102555.44;10377111;28;20394;-69
2023/05/29 05:26:37;;;;;;;10.82;2.10;;;;;;;9.83;100.00;102558.84;10374809;28;20486;-68
2023/05/29 05:31:38;;;;;;;13.02;2.67;;;;;;;9.82;100.00;102554.41;10374707;28;20084;-68
2023/05/29 05:36:38;;;;;;;14.43;2.35;;;;;;;9.94;100.00;102559.28;10376187;28;20077;-69
2023/05/29 05:41:39;;;;;;;12.85;2.50;;;;;;;10.01;100.00;102561.00;10374348;28;20072;-68
2023/05/29 05:46:39;;;;;;;10.07;2.20;;;;;;;10.12;100.00;102556.78;10373714;28;20034;-68
2023/05/29 05:51:40;;;;;;;12.18;2.72;;;;;;;9.43;100.00;102421.28;10366700;28;20517;-68
2023/05/29 05:56:40;;;;;;;14.57;3.25;;;;;;;10.43;100.00;102542.41;10373588;28;20030;-69
2023/05/29 06:01:41;;;;;;;9.48;2.80;;;;;;;10.55;100.00;102530.78;10375071;28;20037;-68
2023/05/29 06:06:41;;;;;;;9.18;1.98;;;;;;;10.76;100.00;102540.69;10374488;28;20068;-69
2023/05/29 06:11:42;;;;;;;16.65;2.67;;;;;;;11.02;100.00;102539.78;10373276;28;20037;-68
2023/05/29 06:16:42;;;;;;;20.95;3.03;;;;;;;11.35;100.00;102549.81;10371535;28;20045;-69
2023/05/29 06:21:43;;;;;;;10.48;1.60;;;;;;;11.50;100.00;102554.00;10374685;28;20065;-69
2023/05/29 06:26:43;;;;;;;9.95;2.33;;;;;;;11.73;100.00;102538.81;10372367;28;20440;-69
2023/05/29 06:31:44;;;;;;;16.63;2.50;;;;;;;11.99;100.00;102559.06;10371789;28;20030;-69
2023/05/29 06:36:44;;;;;;;11.30;3.33;;;;;;;12.16;100.00;102563.00;10373799;28;20049;-68
2023/05/29 06:41:45;;;;;;;21.45;3.08;;;;;;;12.17;100.00;102564.66;10362283;28;20083;-69
2023/05/29 06:46:45;;;;;;;9.52;2.40;;;;;;;12.42;100.00;102577.66;10414328;28;20064;-68
2023/05/29 06:51:46;;;;;;;18.48;3.47;;;;;;;12.29;100.00;102578.59;10412840;28;20049;-68
2023/05/29 06:56:46;;;;;;;17.10;2.30;;;;;;;12.40;100.00;102585.31;10412317;28;20095;-69
2023/05/29 07:01:47;;;;;;;14.27;3.70;;;;;;;12.45;100.00;102588.25;10395760;28;20033;-68
2023/05/29 07:06:47;;;;;;;13.63;2.63;;;;;;;12.42;100.00;102594.22;10367375;28;20046;-68
2023/05/29 07:11:48;;;;;;;13.38;2.30;;;;;;;12.40;100.00;102596.38;10373781;28;20057;-68
2023/05/29 07:16:48;;;;;;;15.93;3.10;;;;;;;12.69;100.00;102601.22;10379238;28;20042;-68
2023/05/29 07:21:51;;;;;;;13.32;2.30;;;;;;;12.99;100.00;102594.16;10400183;28;20033;-68
2023/05/29 07:26:52;;;;;;;20.70;3.88;;;;;;;13.46;100.00;102589.81;10401010;28;20044;-69
2023/05/29 07:31:52;;;;;;;11.70;2.70;;;;;;;13.41;100.00;102586.88;10399122;28;20463;-68
2023/05/29 07:36:56;;;;;;;17.67;2.72;;;;;;;13.48;100.00;102581.28;10398834;28;20034;-68
2023/05/29 07:41:56;;;;;;;8.20;1.80;;;;;;;13.72;100.00;102576.69;10398380;28;20065;-69
2023/05/29 07:46:57;;;;;;;15.05;3.22;;;;;;;13.96;100.00;102582.34;10400487;28;20056;-69
2023/05/29 07:51:57;;;;;;;14.77;3.83;;;;;;;13.72;100.00;102587.75;10397946;28;20044;-70
2023/05/29 07:57:02;;;;;;;13.10;3.03;;;;;;;13.48;100.00;102567.44;10398574;28;20048;-70
2023/05/29 08:02:03;;;;;;;13.18;2.17;;;;;;;13.66;100.00;102583.16;10381540;28;20073;-68
2023/05/29 08:07:04;;;;;;;11.88;3.28;;;;;;;13.78;100.00;102589.59;10396190;28;20066;-69
2023/05/29 08:12:06;;;;;;;15.32;3.45;;;;;;;14.19;100.00;102587.94;10398899;28;20037;-69
2023/05/29 08:17:06;;;;;;;17.02;3.03;;;;;;;14.54;100.00;102579.69;10399558;28;20064;-69
2023/05/29 08:22:07;;;;;;;10.35;2.38;;;;;;;14.55;100.00;102588.84;10398362;28;20038;-69
2023/05/29 08:27:07;;;;;;;18.40;4.65;;;;;;;14.63;100.00;102588.50;10397380;28;20038;-69
2023/05/29 08:32:08;;;;;;;13.68;3.22;;;;;;;15.00;100.00;102585.50;10394789;28;20033;-70
2023/05/29 08:37:10;;;;;;;12.43;3.67;;;;;;;15.33;100.00;102584.00;10389393;28;20061;-70
2023/05/29 08:42:13;;;;;;;15.68;2.42;;;;;;;15.21;100.00;102583.19;10384999;28;20045;-69
2023/05/29 08:47:18;;;;;;;18.92;3.58;;;;;;;15.00;100.00;102598.53;10416122;28;20037;-69
2023/05/29 08:52:27;;;;;;;13.77;2.60;;;;;;;15.10;100.00;102596.84;10442657;28;20104;-69
2023/05/29 08:57:31;;;;;;;10.70;2.35;;;;;;;15.17;100.00;102582.00;10458491;28;20447;-70
2023/05/29 09:02:31;;;;;;;16.92;2.55;;;;;;;15.52;100.00;102593.88;10441786;28;20049;-69
2023/05/29 09:07:33;;;;;;;15.50;3.10;;;;;;;15.46;100.00;102596.75;10450848;28;20050;-69
2023/05/29 09:12:41;;;;;;;15.45;3.65;;;;;;;15.20;100.00;102595.38;10395164;28;20054;-70
2023/05/29 09:17:41;;;;;;;15.82;2.10;;;;;;;15.21;100.00;102597.06;10381747;28;20048;-70
2023/05/29 09:22:42;;;;;;;19.67;5.05;;;;;;;15.31;100.00;102594.50;10377619;28;20038;-69
2023/05/29 09:27:43;;;;;;;20.88;2.83;;;;;;;15.73;100.00;102586.00;10393544;28;20042;-69
2023/05/29 09:32:43;;;;;;;9.73;3.33;;;;;;;16.06;100.00;102584.38;10325704;28;20034;-69
2023/05/29 09:37:44;;;;;;;17.25;3.00;;;;;;;15.91;100.00;102577.44;10365989;28;20045;-68
2023/05/29 09:42:44;;;;;;;17.17;3.58;;;;;;;16.02;100.00;102588.75;10357924;28;20053;-67
2023/05/29 09:47:44;;;;;;;17.55;3.80;;;;;;;16.22;100.00;102593.84;10357938;28;20048;-67
2023/05/29 09:52:45;;;;;;;18.63;3.05;;;;;;;16.19;100.00;102591.56;10356926;28;20037;-67
2023/05/29 09:57:46;;;;;;;14.55;3.95;;;;;;;16.10;100.00;102580.00;10357515;28;20065;-68
2023/05/29 10:02:50;;;;;;;14.30;2.53;;;;;;;15.89;100.00;102582.41;10356117;28;20456;-68
2023/05/29 10:07:52;;;;;;;17.90;3.65;;;;;;;15.98;100.00;102593.09;10354136;28;20092;-68
2023/05/29 10:12:53;;;;;;;13.38;2.35;;;;;;;16.09;100.00;102578.31;10336063;28;20168;-68
2023/05/29 10:18:04;;;;;;;14.00;2.00;;;;;;;16.24;100.00;102595.25;10351287;28;20046;-68
2023/05/29 10:23:04;;;;;;;15.23;2.40;;;;;;;16.30;100.00;102585.91;10378436;28;20049;-67
2023/05/29 10:28:04;;;;;;;14.43;2.40;;;;;;;16.24;100.00;102574.97;10353370;28;20052;-67
2023/05/29 10:33:11;;;;;;;9.82;2.00;;;;;;;16.46;100.00;102577.84;10352594;28;20571;-68
2023/05/29 10:38:13;;;;;;;17.08;2.88;;;;;;;16.53;100.00;102575.75;10396778;28;20068;-70
2023/05/29 10:43:46;;;;;;;17.13;3.55;;;;;;;16.64;100.00;102569.25;10372712;28;20037;-70
2023/05/29 10:48:49;;;;;;;10.55;2.50;;;;;;;16.34;100.00;102576.00;10350136;28;20046;-68
2023/05/29 10:53:50;;;;;;;13.20;2.67;;;;;;;16.31;100.00;102570.94;10348972;28;20049;-69
2023/05/29 10:58:53;;;;;;;7.63;2.35;;;;;;;16.96;100.00;102585.34;10336012;28;20053;-69
2023/05/29 11:04:26;;;;;;;14.10;2.45;;;;;;;16.86;100.00;102572.13;10334262;28;20050;-70
2023/05/29 11:09:30;;;;;;;15.88;3.08;;;;;;;17.06;100.00;102587.44;10370104;28;20038;-70
2023/05/29 11:14:31;;;;;;;13.18;2.75;;;;;;;16.83;98.25;102575.41;10400498;28;20107;-69
2023/05/29 11:19:31;;;;;;;11.07;2.58;;;;;;;16.77;98.13;102556.09;10349012;28;20092;-69
2023/05/29 11:24:32;;;;;;;15.75;2.58;;;;;;;17.10;100.00;102595.00;10380777;28;20037;-68
2023/05/29 11:29:32;;;;;;;10.93;2.80;;;;;;;17.65;96.72;102570.09;10394115;28;20107;-70
2023/05/29 11:34:32;;;;;;;9.63;2.13;;;;;;;17.49;96.04;102569.09;10413051;28;20048;-70
2023/05/29 11:39:36;;;;;;;11.15;2.55;;;;;;;17.73;93.91;102555.69;10394863;28;20047;-69
2023/05/29 11:44:37;;;;;;;10.25;2.15;;;;;;;17.65;96.94;102578.44;10409894;28;20039;-70
2023/05/29 11:49:37;;;;;;;11.10;2.95;;;;;;;18.13;95.09;102563.66;10399702;28;20145;-70
2023/05/29 11:54:38;;;;;;;10.13;2.22;;;;;;;18.24;93.95;102567.38;10365223;28;20098;-70
2023/05/29 11:59:38;;;;;;;10.02;2.47;;;;;;;18.45;90.41;102548.88;10390610;28;20061;-69
2023/05/29 12:04:39;;;;;;;16.02;3.10;;;;;;;18.26;88.79;102555.97;10396033;28;20041;-70
2023/05/29 12:09:39;;;;;;;16.73;2.83;;;;;;;17.73;90.14;102552.91;10399556;28;20552;-70
2023/05/29 12:14:40;;;;;;;14.15;2.15;;;;;;;18.54;90.50;102560.38;10392984;28;20052;-67
2023/05/29 12:19:41;;;;;;;10.98;2.47;;;;;;;19.41;88.21;102549.75;10403442;28;20060;-70
2023/05/29 12:24:41;;;;;;;10.73;2.58;;;;;;;19.68;83.98;102526.38;10390682;28;20044;-68
2023/05/29 12:29:41;;;;;;;9.55;2.20;;;;;;;19.84;82.67;102538.44;10395862;28;20041;-69
2023/05/29 12:34:42;;;;;;;11.60;2.65;;;;;;;19.90;80.69;102543.75;10417078;28;20037;-69
2023/05/29 12:39:42;;;;;;;6.13;1.83;;;;;;;19.92;81.41;102538.72;10383124;28;20250;-72
2023/05/29 12:44:43;;;;;;;10.65;3.05;;;;;;;20.04;81.13;102540.44;10375463;28;20092;-69
2023/05/29 12:49:44;;;;;;;8.65;1.77;;;;;;;19.82;80.89;102543.47;10379980;28;20048;-70
2023/05/29 12:54:44;;;;;;;6.80;1.67;;;;;;;20.36;81.12;102555.00;10348606;28;20042;-70
2023/05/29 12:59:45;;;;;;;8.98;2.42;;;;;;;21.13;76.17;102540.88;10369628;28;20042;-69
2023/05/29 13:04:46;;;;;;;10.32;2.22;;;;;;;21.25;73.50;102522.88;10344783;28;20042;-70
2023/05/29 13:09:46;;;;;;;9.18;2.08;;;;;;;21.45;74.56;102531.22;10351262;28;20038;-71
2023/05/29 13:14:47;;;;;;;7.68;2.00;;;;;;;21.90;73.82;102528.44;10403060;28;20072;-70
2023/05/29 13:19:47;;;;;;;12.35;4.30;;;;;;;22.39;73.59;102537.91;10414939;28;20436;-71
2023/05/29 13:24:48;;;;;;;7.55;1.65;;;;;;;22.62;69.34;102523.09;10411102;28;20529;-69
2023/05/29 13:29:48;;;;;;;14.52;2.70;;;;;;;22.00;72.86;102530.34;10398604;28;20037;-69
2023/05/29 13:34:49;;;;;;;9.32;1.60;;;;;;;22.16;67.72;102529.09;10397272;28;20033;-69
2023/05/29 13:39:50;;;;;;;6.90;1.80;;;;;;;21.74;68.55;102538.91;10395261;28;20049;-69
2023/05/29 13:44:50;;;;;;;6.53;1.58;;;;;;;22.02;69.23;102533.69;10404230;28;20038;-68
2023/05/29 13:49:51;;;;;;;7.50;2.00;;;;;;;21.99;68.47;102535.09;10394032;28;20046;-69
2023/05/29 13:54:52;;;;;;;7.68;1.65;;;;;;;21.81;67.90;102533.84;10392176;28;20129;-68
2023/05/29 13:59:52;;;;;;;8.70;2.60;;;;;;;22.20;66.13;102532.13;10392578;28;20061;-68
2023/05/29 14:04:53;;;;;;;11.25;1.83;;;;;;;21.79;66.20;102535.25;10393149;28;20061;-68
2023/05/29 14:09:53;;;;;;;12.07;1.75;;;;;;;22.05;65.31;102538.72;10397587;28;20036;-69
2023/05/29 14:14:54;;;;;;;7.93;1.80;;;;;;;21.84;64.49;102533.25;10406496;28;20044;-68
2023/05/29 14:19:55;;;;;;;8.18;1.70;;;;;;;21.65;65.38;102532.25;10391555;28;20064;-67
2023/05/29 14:24:55;;;;;;;9.50;2.05;;;;;;;22.45;65.23;102536.72;10393642;28;20068;-68
2023/05/29 14:29:56;;;;;;;7.30;1.75;;;;;;;22.94;64.39;102532.84;10393162;28;20046;-69
2023/05/29 14:34:57;;;;;;;8.82;1.88;;;;;;;22.99;63.52;102527.19;10374137;28;20046;-69
2023/05/29 14:39:58;;;;;;;13.50;2.53;;;;;;;21.75;61.64;102473.34;10373591;28;20041;-68
2023/05/29 14:44:59;;;;;;;8.57;2.00;;;;;;;22.73;62.91;102521.84;10384976;28;20314;-68
2023/05/29 14:49:59;;;;;;;6.82;2.05;;;;;;;22.78;60.13;102506.94;10412476;28;20056;-68
2023/05/29 14:55:03;;;;;;;9.13;1.70;;;;;;;22.93;59.40;102508.72;10414263;28;20040;-68
2023/05/29 15:00:05;;;;;;;10.60;1.67;;;;;;;22.56;58.85;102501.81;10414662;28;20042;-70
2023/05/29 15:05:06;;;;;;;5.38;1.60;;;;;;;22.94;58.25;102516.00;10383031;28;20109;-70
2023/05/29 15:10:07;;;;;;;6.95;1.50;;;;;;;22.43;56.50;102519.34;10371201;28;20431;-69
2023/05/29 15:15:08;;;;;;;6.57;1.30;;;;;;;22.27;56.72;102519.50;10372540;28;20038;-69
2023/05/29 15:20:09;;;;;;;6.50;1.50;;;;;;;23.11;55.41;102516.41;10393287;28;20060;-68
2023/05/29 15:25:09;;;;;;;9.88;1.88;;;;;;;22.96;54.10;102516.53;10412315;28;20044;-69
2023/05/29 15:30:17;;;;;;;9.90;1.55;;;;;;;22.19;53.61;102506.06;10394055;28;20045;-69
2023/05/29 15:35:18;;;;;;;4.82;1.55;;;;;;;22.45;53.32;102500.22;10411089;28;20044;-69
2023/05/29 15:40:19;;;;;;;5.72;1.75;;;;;;;22.63;53.78;102510.72;10417410;28;20041;-68
2023/05/29 15:45:19;;;;;;;8.93;1.67;;;;;;;22.28;56.37;102526.78;10419418;28;20030;-68
2023/05/29 15:50:20;;;;;;;6.90;1.20;;;;;;;22.38;54.66;102508.16;10419723;28;20042;-70
2023/05/29 15:55:20;;;;;;;7.85;1.60;;;;;;;22.38;55.74;102520.22;10386649;28;20110;-69
2023/05/29 16:00:21;;;;;;;9.32;1.70;;;;;;;22.66;57.23;102521.38;10376984;28;20113;-69
2023/05/29 16:05:21;;;;;;;5.70;1.30;;;;;;;21.74;54.02;102514.53;10377349;28;20038;-68
2023/05/29 16:10:22;;;;;;;5.18;1.10;;;;;;;22.49;54.79;102527.44;10377244;28;20551;-69
2023/05/29 16:15:23;;;;;;;7.03;1.42;;;;;;;21.46;57.08;102456.44;10377491;28;20045;-68
2023/05/29 16:20:24;;;;;;;11.20;2.65;;;;;;;21.77;58.06;102556.00;10367844;28;20034;-68
2023/05/29 16:25:25;;;;;;;6.88;1.58;;;;;;;21.94;57.14;102535.16;10356341;28;20037;-68
2023/05/29 16:30:25;;;;;;;10.10;1.77;;;;;;;21.39;58.31;102553.94;10357411;28;20045;-68
2023/05/29 16:35:26;;;;;;;6.75;1.20;;;;;;;21.69;57.97;102559.41;10391782;28;20053;-70
2023/05/29 16:40:26;;;;;;;10.05;1.80;;;;;;;21.77;59.52;102566.38;10391324;28;20045;-68
2023/05/29 16:45:26;;;;;;;13.27;2.17;;;;;;;22.34;59.70;102556.44;10393470;28;20041;-68
2023/05/29 16:50:27;;;;;;;5.07;1.30;;;;;;;20.77;60.96;102570.91;10391447;28;20064;-68
2023/05/29 16:55:27;;;;;;;9.80;2.33;;;;;;;18.90;65.43;102583.81;10432694;28;20029;-67
2023/05/29 17:00:28;;;;;;;10.38;1.95;;;;;;;17.98;68.17;102585.78;10440467;28;20033;-71
2023/05/29 17:05:28;;;;;;;12.38;2.17;;;;;;;17.02;70.72;102587.09;10417694;28;20037;-69
2023/05/29 17:10:33;;;;;;;9.55;1.92;;;;;;;16.73;74.61;102598.31;10361824;28;20046;-68
2023/05/29 17:15:33;;;;;;;11.65;1.92;;;;;;;16.87;74.95;102595.22;10359854;28;20052;-68
2023/05/29 17:20:35;;;;;;;12.77;2.28;;;;;;;16.57;74.80;102593.59;10361133;28;20037;-68
2023/05/29 17:25:35;;;;;;;8.32;1.42;;;;;;;16.03;75.65;102588.50;10354615;28;20054;-68
2023/05/29 17:30:36;;;;;;;5.22;1.70;;;;;;;15.41;76.97;102589.19;10358188;28;20704;-69
2023/05/29 17:35:37;;;;;;;11.88;1.90;;;;;;;15.18;79.04;102616.97;10358167;28;20058;-68
2023/05/29 17:40:37;;;;;;;11.82;1.80;;;;;;;14.51;80.89;102612.56;10358149;28;20034;-69
2023/05/29 17:45:38;;;;;;;8.02;1.95;;;;;;;14.31;81.62;102622.06;10359622;28;20034;-69
2023/05/29 17:50:38;;;;;;;8.80;1.70;;;;;;;14.09;82.90;102621.72;10356400;28;20037;-69
2023/05/29 17:55:39;;;;;;;7.18;1.55;;;;;;;13.76;88.52;102633.28;10357157;28;20741;-69
2023/05/29 18:00:40;;;;;;;8.13;1.90;;;;;;;13.79;94.14;102643.91;10356701;28;20068;-66
2023/05/29 18:05:40;;;;;;;10.80;1.92;;;;;;;13.71;96.77;102639.50;10358056;28;20037;-69
2023/05/29 18:10:41;;;;;;;8.63;2.08;;;;;;;13.58;98.87;102634.16;10356773;28;20059;-69
2023/05/29 18:15:41;;;;;;;11.55;1.23;;;;;;;13.40;100.00;102646.06;10358003;28;20042;-69
2023/05/29 18:20:43;;;;;;;9.10;1.73;;;;;;;13.33;100.00;102645.28;10358565;28;20611;-68
2023/05/29 18:25:43;;;;;;;11.05;1.88;;;;;;;13.17;100.00;102640.31;10356128;28;20136;-68
2023/05/29 18:30:44;;;;;;;9.38;1.55;;;;;;;13.04;100.00;102653.22;10353501;28;20656;-70
2023/05/29 18:35:44;;;;;;;6.68;1.63;;;;;;;12.96;100.00;102655.41;10366408;28;20038;-67
2023/05/29 18:40:46;;;;;;;14.15;2.75;;;;;;;12.78;100.00;102643.25;10342774;28;21435;-68
2023/05/29 18:45:47;;;;;;;14.68;3.17;;;;;;;12.81;100.00;102659.34;10353857;28;20037;-68
2023/05/29 18:50:47;;;;;;;12.10;1.95;;;;;;;12.59;100.00;102656.16;10354901;28;20124;-67
2023/05/29 18:55:48;;;;;;;6.95;1.67;;;;;;;12.06;100.00;102617.84;10356223;28;20072;-67
2023/05/29 19:00:48;;;;;;;7.80;1.92;;;;;;;12.33;100.00;102659.94;10363660;28;20076;-68
2023/05/29 19:05:50;;;;;;;9.35;1.90;;;;;;;12.23;100.00;102652.13;10410236;28;20100;-69
2023/05/29 19:10:50;;;;;;;12.00;2.10;;;;;;;12.17;100.00;102666.84;10409848;28;20457;-68
2023/05/29 19:15:51;;;;;;;12.75;1.73;;;;;;;12.01;100.00;102659.94;10447450;28;20092;-67
2023/05/29 19:20:52;;;;;;;9.02;2.15;;;;;;;12.05;100.00;102661.19;10449831;28;20097;-67
2023/05/29 19:25:52;;;;;;;13.77;2.17;;;;;;;11.96;100.00;102656.97;10423137;28;20029;-67
2023/05/29 19:30:55;;;;;;;10.00;2.10;;;;;;;11.82;100.00;102660.81;10435917;28;20037;-66
2023/05/29 19:35:55;;;;;;;9.40;2.05;;;;;;;11.62;100.00;102660.94;10456104;28;20064;-68
2023/05/29 19:40:56;;;;;;;15.05;2.15;;;;;;;11.59;100.00;102680.66;10450068;28;20041;-68
2023/05/29 19:45:56;;;;;;;8.38;2.00;;;;;;;11.45;100.00;102677.94;10452410;28;20102;-68
2023/05/29 19:50:57;;;;;;;11.85;2.13;;;;;;;11.32;100.00;102669.69;10452101;28;20075;-67
2023/05/29 19:55:58;;;;;;;18.13;3.42;;;;;;;11.34;100.00;102675.00;10441496;28;20533;-67
2023/05/29 20:00:58;;;;;;;18.10;3.25;;;;;;;11.19;100.00;102665.06;10435948;28;20112;-68
2023/05/29 20:05:59;;;;;;;15.50;2.45;;;;;;;11.16;100.00;102681.16;10432687;28;20051;-69
2023/05/29 20:10:59;;;;;;;14.45;2.45;;;;;;;11.08;100.00;102682.25;10427597;28;20053;-67
2023/05/29 20:16:00;;;;;;;15.98;2.75;;;;;;;10.95;100.00;102685.00;10449818;28;20033;-67
2023/05/29 20:21:01;;;;;;;9.70;2.13;;;;;;;10.86;100.00;102685.22;10442125;28;20062;-67
2023/05/29 20:26:01;;;;;;;10.02;2.60;;;;;;;10.81;100.00;102692.41;10415503;28;20033;-68
2023/05/29 20:31:02;;;;;;;11.45;2.58;;;;;;;10.82;100.00;102685.84;10397160;28;20065;-68
2023/05/29 20:36:03;;;;;;;10.93;2.45;;;;;;;10.80;100.00;102699.00;10417369;28;20061;-68
2023/05/29 20:41:05;;;;;;;15.05;3.47;;;;;;;10.73;100.00;102678.84;10441104;28;20071;-70
2023/05/29 20:46:06;;;;;;;14.43;2.70;;;;;;;10.66;100.00;102698.13;10427127;28;20047;-68
2023/05/29 20:51:08;;;;;;;11.30;2.60;;;;;;;10.55;100.00;102672.06;10439617;28;20052;-68
2023/05/29 20:56:11;;;;;;;15.13;3.40;;;;;;;10.60;100.00;102680.53;10455870;28;20088;-67
2023/05/29 21:01:11;;;;;;;11.85;2.45;;;;;;;10.48;100.00;102676.72;10442606;28;20065;-67
2023/05/29 21:06:12;;;;;;;14.40;2.60;;;;;;;10.39;100.00;102680.72;10439637;28;20041;-67
2023/05/29 21:11:12;;;;;;;16.92;4.03;;;;;;;10.43;100.00;102702.13;10396697;28;20050;-67
2023/05/29 21:16:13;;;;;;;14.52;2.95;;;;;;;10.36;100.00;102703.19;10381242;28;20046;-68
2023/05/29 21:21:14;;;;;;;12.68;3.10;;;;;;;10.34;100.00;102699.78;10370347;28;20616;-68
2023/05/29 21:26:15;;;;;;;12.93;1.90;;;;;;;10.35;100.00;102701.47;10365673;28;20497;-67
2023/05/29 21:31:15;;;;;;;13.30;2.03;;;;;;;10.40;100.00;102690.69;10388952;28;20156;-67
2023/05/29 21:36:16;;;;;;;20.65;2.90;;;;;;;10.39;100.00;102688.97;10372417;28;20240;-67
2023/05/29 21:41:16;;;;;;;7.75;2.50;;;;;;;10.34;100.00;102684.09;10347865;28;20512;-68
2023/05/29 21:46:17;;;;;;;12.45;2.92;;;;;;;10.43;100.00;102693.84;10346699;28;20065;-67
2023/05/29 21:51:18;;;;;;;14.20;2.70;;;;;;;10.51;100.00;102676.28;10351527;28;20053;-68
2023/05/29 21:56:18;;;;;;;8.00;2.92;;;;;;;10.60;100.00;102669.50;10411662;28;20131;-68
2023/05/29 22:01:21;;;;;;;8.57;2.10;;;;;;;10.63;100.00;102660.84;10398412;28;20129;-67
2023/05/29 22:06:21;;;;;;;12.50;2.38;;;;;;;10.62;100.00;102670.16;10414287;28;20037;-68
2023/05/29 22:11:22;;;;;;;12.65;2.60;;;;;;;10.65;100.00;102672.50;10347069;28;20100;-68
2023/05/29 22:16:22;;;;;;;11.45;2.65;;;;;;;10.66;100.00;102673.34;10396465;28;20056;-68
2023/05/29 22:21:26;;;;;;;6.32;2.90;;;;;;;10.73;100.00;102673.34;10379227;28;20061;-67
2023/05/29 22:26:28;;;;;;;11.25;2.58;;;;;;;10.69;100.00;102676.53;10411672;28;20041;-67
2023/05/29 22:31:28;;;;;;;14.15;3.58;;;;;;;10.76;100.00;102690.28;10408009;28;20100;-68
2023/05/29 22:36:29;;;;;;;12.52;2.53;;;;;;;10.75;100.00;102676.72;10389432;28;20107;-69
2023/05/29 22:41:30;;;;;;;10.68;2.42;;;;;;;10.81;100.00;102692.41;10413140;28;20037;-68
2023/05/29 22:46:30;;;;;;;12.10;3.50;;;;;;;10.82;100.00;102667.41;10406827;28;20033;-69
2023/05/29 22:51:32;;;;;;;9.50;2.58;;;;;;;10.83;100.00;102657.22;10412780;28;20053;-69